Time;durP1;ratioP1;P1;durP2;ratioP2;P2;SDS_P1;SDS_P2;PMS_P1;PMS_P2;Temp;Humidity;BMP_temperature;BMP_pressure;BME280_temperature;BME280_humidity;BME280_pressure;Samples;Min_cycle;Max_cycle;Signal;HPM_P1;HPM_P2
2020/12/13 00:01:55;;;;;;;76.57;26.00;;;;;;;;;;5023873;28;20225;-70
2020/12/13 00:04:20;;;;;;;67.47;24.63;;;;;;;;;;5020392;28;20213;-70
2020/12/13 00:06:45;;;;;;;61.23;22.03;;;;;;;;;;5018383;28;20309;-70
2020/12/13 00:09:11;;;;;;;62.13;22.20;;;;;;;;;;5010855;28;20186;-70
2020/12/13 00:11:37;;;;;;;67.30;24.60;;;;;;;;;;5016916;28;20183;-70
2020/12/13 00:14:03;;;;;;;64.37;20.90;;;;;;;;;;5014960;28;20673;-70
2020/12/13 00:16:29;;;;;;;62.23;22.73;;;;;;;;;;5021847;28;20189;-70
2020/12/13 00:18:54;;;;;;;64.20;22.07;;;;;;;;;;5011050;28;20187;-70
2020/12/13 00:21:19;;;;;;;54.57;21.37;;;;;;;;;;5017073;28;20186;-70
2020/12/13 00:23:45;;;;;;;55.73;21.07;;;;;;;;;;5019050;28;20199;-70
2020/12/13 00:26:11;;;;;;;58.03;22.43;;;;;;;;;;5009394;28;20225;-70
2020/12/13 00:28:37;;;;;;;60.97;22.43;;;;;;;;;;5020023;28;20285;-70
2020/12/13 00:31:04;;;;;;;74.57;22.50;;;;;;;;;;5015607;28;20182;-70
2020/12/13 00:33:30;;;;;;;75.50;22.73;;;;;;;;;;5015510;28;20226;-70
2020/12/13 00:35:55;;;;;;;77.50;23.80;;;;;;;;;;5012299;28;20657;-70
2020/12/13 00:38:21;;;;;;;73.67;23.10;;;;;;;;;;5015532;28;20213;-70
2020/12/13 00:40:49;;;;;;;78.53;24.23;;;;;;;;;;5013458;28;20231;-70
2020/12/13 00:43:15;;;;;;;69.60;23.43;;;;;;;;;;5021874;28;20197;-70
2020/12/13 00:45:40;;;;;;;71.17;23.70;;;;;;;;;;5012182;28;20214;-70
2020/12/13 00:48:05;;;;;;;71.43;22.80;;;;;;;;;;5024337;28;20763;-70
2020/12/13 00:50:33;;;;;;;105.53;25.57;;;;;;;;;;5013307;28;20190;-71
2020/12/13 00:52:59;;;;;;;115.33;25.20;;;;;;;;;;5024570;28;20182;-71
2020/12/13 00:55:24;;;;;;;117.97;27.50;;;;;;;;;;5022736;28;20688;-70
2020/12/13 00:57:50;;;;;;;105.67;25.53;;;;;;;;;;5016431;28;20197;-70
2020/12/13 01:00:15;;;;;;;134.93;28.30;;;;;;;;;;5023681;28;20182;-70
2020/12/13 01:02:40;;;;;;;112.67;26.30;;;;;;;;;;5019703;28;20182;-70
2020/12/13 01:05:06;;;;;;;125.30;28.23;;;;;;;;;;5023346;28;20324;-70
2020/12/13 01:07:31;;;;;;;103.37;27.07;;;;;;;;;;5010764;28;20552;-70
2020/12/13 01:09:56;;;;;;;134.13;29.83;;;;;;;;;;5018418;28;20182;-71
2020/12/13 01:12:21;;;;;;;123.70;28.97;;;;;;;;;;5010494;28;20205;-71
2020/12/13 01:14:47;;;;;;;108.27;27.27;;;;;;;;;;5025407;28;20312;-71
2020/12/13 01:17:12;;;;;;;117.93;25.47;;;;;;;;;;5017023;28;26769;-71
2020/12/13 01:19:37;;;;;;;127.50;25.00;;;;;;;;;;5020469;28;20253;-70
2020/12/13 01:22:03;;;;;;;139.23;26.50;;;;;;;;;;5026219;28;20220;-70
2020/12/13 01:24:28;;;;;;;118.83;26.00;;;;;;;;;;5012768;28;20200;-71
2020/12/13 01:26:53;;;;;;;82.83;23.73;;;;;;;;;;5023916;28;20572;-71
2020/12/13 01:29:19;;;;;;;86.93;23.20;;;;;;;;;;5015871;28;20187;-71
2020/12/13 01:31:45;;;;;;;68.53;21.67;;;;;;;;;;5017948;28;20194;-71
2020/12/13 01:34:10;;;;;;;69.10;23.07;;;;;;;;;;5015403;28;20226;-70
2020/12/13 01:36:36;;;;;;;89.83;24.47;;;;;;;;;;5023140;28;20557;-71
2020/12/13 01:39:03;;;;;;;67.27;23.10;;;;;;;;;;5012116;28;20197;-70
2020/12/13 01:41:29;;;;;;;64.40;22.10;;;;;;;;;;5020221;28;20611;-70
2020/12/13 01:44:05;;;;;;;62.63;22.57;;;;;;;;;;5014319;28;20183;-70
2020/12/13 01:46:33;;;;;;;69.90;23.13;;;;;;;;;;5025400;28;20309;-70
2020/12/13 01:49:03;;;;;;;60.80;23.10;;;;;;;;;;5015190;28;20186;-70
2020/12/13 01:54:24;;;;;;;57.67;20.30;;;;;;;;;;5018512;28;20194;-70
2020/12/13 01:56:55;;;;;;;57.30;22.47;;;;;;;;;;5024883;28;20190;-70
2020/12/13 01:59:23;;;;;;;63.40;21.87;;;;;;;;;;5014815;28;20190;-70
2020/12/13 02:01:56;;;;;;;60.90;21.97;;;;;;;;;;5020224;28;20191;-71
2020/12/13 02:04:23;;;;;;;62.20;22.73;;;;;;;;;;5025826;28;20240;-71
2020/12/13 02:06:52;;;;;;;58.87;22.40;;;;;;;;;;5013119;28;20221;-70
2020/12/13 02:09:18;;;;;;;50.97;20.43;;;;;;;;;;5022619;28;20193;-70
2020/12/13 02:11:44;;;;;;;55.17;21.23;;;;;;;;;;5013027;28;20611;-71
2020/12/13 02:14:09;;;;;;;51.27;21.93;;;;;;;;;;5025109;28;20217;-71
2020/12/13 02:16:35;;;;;;;54.50;22.53;;;;;;;;;;5013344;28;20206;-71
2020/12/13 02:19:00;;;;;;;56.27;21.87;;;;;;;;;;5025504;28;20186;-71
2020/12/13 02:21:26;;;;;;;52.63;21.10;;;;;;;;;;5014681;28;20269;-71
2020/12/13 02:23:51;;;;;;;52.70;20.77;;;;;;;;;;5022046;28;20232;-71
2020/12/13 02:26:17;;;;;;;56.97;22.33;;;;;;;;;;5015276;28;20263;-71
2020/12/13 02:28:42;;;;;;;48.80;21.03;;;;;;;;;;5026208;28;20181;-71
2020/12/13 02:31:09;;;;;;;52.77;21.33;;;;;;;;;;5017238;28;20925;-71
2020/12/13 02:33:36;;;;;;;59.97;22.97;;;;;;;;;;5023593;28;20222;-71
2020/12/13 02:36:03;;;;;;;50.47;21.03;;;;;;;;;;5027594;28;20205;-71
2020/12/13 02:38:30;;;;;;;51.20;21.07;;;;;;;;;;5021143;28;20193;-71
2020/12/13 02:40:56;;;;;;;50.33;21.43;;;;;;;;;;5025132;28;20521;-71
2020/12/13 02:43:21;;;;;;;52.00;20.87;;;;;;;;;;5022510;28;20200;-71
2020/12/13 02:45:46;;;;;;;52.73;21.07;;;;;;;;;;5026149;28;20201;-70
2020/12/13 02:48:12;;;;;;;51.97;21.73;;;;;;;;;;5034367;28;20214;-71
2020/12/13 02:50:38;;;;;;;47.63;20.00;;;;;;;;;;5027193;28;20210;-70
2020/12/13 02:53:04;;;;;;;53.73;22.40;;;;;;;;;;5019014;28;20588;-71
2020/12/13 02:55:29;;;;;;;51.07;21.23;;;;;;;;;;5025814;28;20581;-70
2020/12/13 02:57:55;;;;;;;49.53;21.03;;;;;;;;;;5021866;28;20193;-71
2020/12/13 03:00:20;;;;;;;55.00;21.80;;;;;;;;;;5025368;28;20189;-70
2020/12/13 03:02:45;;;;;;;53.43;21.30;;;;;;;;;;5021718;28;20196;-71
2020/12/13 03:05:11;;;;;;;49.37;20.77;;;;;;;;;;5026916;28;20182;-71
2020/12/13 03:07:36;;;;;;;50.07;20.80;;;;;;;;;;5027708;28;20313;-71
2020/12/13 03:10:02;;;;;;;50.27;21.03;;;;;;;;;;5018358;28;20186;-71
2020/12/13 03:12:28;;;;;;;49.70;20.93;;;;;;;;;;5026940;28;20213;-70
2020/12/13 03:14:53;;;;;;;49.00;20.70;;;;;;;;;;5018130;28;20213;-70
2020/12/13 03:17:19;;;;;;;51.40;20.63;;;;;;;;;;5020505;28;20181;-71
2020/12/13 03:19:44;;;;;;;52.40;19.77;;;;;;;;;;5017653;28;20201;-71
2020/12/13 03:22:10;;;;;;;60.17;22.67;;;;;;;;;;5027052;28;20193;-71
2020/12/13 03:24:35;;;;;;;59.83;22.10;;;;;;;;;;5018175;28;20606;-71
2020/12/13 03:27:00;;;;;;;58.00;22.80;;;;;;;;;;5020670;28;20202;-71
2020/12/13 03:29:26;;;;;;;67.20;22.80;;;;;;;;;;5012091;28;20189;-71
2020/12/13 03:31:51;;;;;;;64.50;22.40;;;;;;;;;;5026709;28;20668;-71
2020/12/13 03:34:16;;;;;;;91.97;26.03;;;;;;;;;;5018143;28;20704;-71
2020/12/13 03:36:42;;;;;;;70.87;24.53;;;;;;;;;;5030559;28;20178;-71
2020/12/13 03:39:07;;;;;;;78.63;25.40;;;;;;;;;;5027797;28;20263;-71
2020/12/13 03:41:32;;;;;;;63.43;23.83;;;;;;;;;;5020907;28;20185;-71
2020/12/13 03:43:58;;;;;;;60.17;22.27;;;;;;;;;;5025407;28;20197;-71
2020/12/13 03:46:23;;;;;;;54.27;22.80;;;;;;;;;;5015707;28;20214;-71
2020/12/13 03:48:48;;;;;;;51.13;22.13;;;;;;;;;;5026730;28;20543;-71
2020/12/13 03:51:14;;;;;;;49.20;20.07;;;;;;;;;;5017124;28;20195;-71
2020/12/13 03:53:39;;;;;;;47.20;20.10;;;;;;;;;;5024256;28;20197;-71
2020/12/13 03:56:04;;;;;;;44.33;20.73;;;;;;;;;;5008429;28;20190;-71
2020/12/13 03:58:29;;;;;;;47.43;19.77;;;;;;;;;;5026180;28;20194;-71
2020/12/13 04:00:55;;;;;;;44.27;20.33;;;;;;;;;;5019422;28;20564;-71
2020/12/13 04:03:20;;;;;;;42.20;20.00;;;;;;;;;;5025879;28;20197;-71
2020/12/13 04:05:45;;;;;;;50.67;20.80;;;;;;;;;;5022499;28;20202;-71
2020/12/13 04:08:11;;;;;;;50.50;21.47;;;;;;;;;;5017570;28;20232;-71
2020/12/13 04:10:36;;;;;;;46.93;21.30;;;;;;;;;;5024716;28;20694;-71
2020/12/13 04:13:01;;;;;;;44.47;20.27;;;;;;;;;;5018770;28;20258;-71
2020/12/13 04:15:27;;;;;;;38.17;19.20;;;;;;;;;;5028926;28;20181;-71
2020/12/13 04:17:52;;;;;;;42.73;20.30;;;;;;;;;;5015060;28;20265;-71
2020/12/13 04:20:17;;;;;;;38.23;18.83;;;;;;;;;;5029774;28;20178;-71
2020/12/13 04:22:43;;;;;;;40.43;18.23;;;;;;;;;;5015889;28;20206;-71
2020/12/13 04:25:08;;;;;;;40.90;18.80;;;;;;;;;;5027517;28;20248;-71
2020/12/13 04:27:34;;;;;;;37.13;17.97;;;;;;;;;;5015796;28;20611;-71
2020/12/13 04:30:00;;;;;;;44.13;20.47;;;;;;;;;;5022691;28;20186;-71
2020/12/13 04:32:25;;;;;;;41.73;20.13;;;;;;;;;;5016133;28;20242;-71
2020/12/13 04:34:51;;;;;;;44.40;20.03;;;;;;;;;;5025068;28;20631;-71
2020/12/13 04:37:17;;;;;;;47.60;19.53;;;;;;;;;;5018401;28;20208;-71
2020/12/13 04:39:42;;;;;;;44.87;20.27;;;;;;;;;;5026192;28;20652;-71
2020/12/13 04:42:08;;;;;;;41.43;19.50;;;;;;;;;;5021273;28;20197;-71
2020/12/13 04:44:36;;;;;;;44.37;19.77;;;;;;;;;;5013626;28;20594;-71
2020/12/13 04:47:06;;;;;;;42.03;19.13;;;;;;;;;;5023726;28;20237;-71
2020/12/13 04:49:34;;;;;;;46.13;21.37;;;;;;;;;;5010152;28;20281;-71
2020/12/13 04:52:01;;;;;;;40.30;18.77;;;;;;;;;;5018465;28;20233;-71
2020/12/13 04:54:28;;;;;;;40.43;19.17;;;;;;;;;;5019716;28;20605;-71
2020/12/13 04:56:56;;;;;;;38.40;18.27;;;;;;;;;;5023516;28;20696;-71
2020/12/13 04:59:22;;;;;;;38.93;17.93;;;;;;;;;;5013957;28;20300;-70
2020/12/13 05:01:49;;;;;;;36.00;17.83;;;;;;;;;;5023775;28;20273;-71
2020/12/13 05:04:15;;;;;;;41.03;17.97;;;;;;;;;;5007731;28;20182;-71
2020/12/13 05:06:42;;;;;;;40.47;18.30;;;;;;;;;;5017318;28;20237;-71
2020/12/13 05:09:09;;;;;;;45.47;19.13;;;;;;;;;;5009429;28;20191;-71
2020/12/13 05:11:35;;;;;;;48.10;19.57;;;;;;;;;;5022263;28;20265;-71
2020/12/13 05:14:02;;;;;;;49.97;19.27;;;;;;;;;;5016782;28;20815;-71
2020/12/13 05:16:27;;;;;;;44.40;18.63;;;;;;;;;;5015862;28;20268;-71
2020/12/13 05:18:53;;;;;;;36.77;17.23;;;;;;;;;;5024938;28;20285;-71
2020/12/13 05:21:21;;;;;;;37.77;17.10;;;;;;;;;;5013549;28;20278;-71
2020/12/13 05:23:47;;;;;;;35.70;16.27;;;;;;;;;;5017559;28;20194;-71
2020/12/13 05:26:19;;;;;;;37.27;16.60;;;;;;;;;;5014574;28;20205;-71
2020/12/13 05:28:50;;;;;;;38.33;17.27;;;;;;;;;;5024461;28;20665;-71
2020/12/13 05:31:18;;;;;;;40.07;18.30;;;;;;;;;;5013363;28;20186;-71
2020/12/13 05:33:46;;;;;;;35.70;17.30;;;;;;;;;;5020244;28;20287;-71
2020/12/13 05:36:14;;;;;;;44.00;18.10;;;;;;;;;;5008938;28;20232;-71
2020/12/13 05:38:41;;;;;;;35.67;16.93;;;;;;;;;;5025138;28;20182;-71
2020/12/13 05:41:08;;;;;;;35.03;16.07;;;;;;;;;;5016088;28;20212;-71
2020/12/13 05:43:40;;;;;;;35.07;16.47;;;;;;;;;;5023937;28;20189;-71
2020/12/13 05:46:21;;;;;;;39.73;17.37;;;;;;;;;;5014969;28;20278;-71
2020/12/13 05:51:37;;;;;;;42.07;17.67;;;;;;;;;;5013283;28;20265;-72
2020/12/13 05:54:19;;;;;;;46.17;18.20;;;;;;;;;;5020060;28;20207;-72
2020/12/13 05:56:49;;;;;;;45.97;18.20;;;;;;;;;;5009044;28;21122;-73
2020/12/13 05:59:14;;;;;;;46.57;18.23;;;;;;;;;;5023477;28;20660;-71
2020/12/13 06:01:41;;;;;;;38.47;17.43;;;;;;;;;;5022506;28;20229;-71
2020/12/13 06:04:13;;;;;;;36.83;17.67;;;;;;;;;;5011606;28;20190;-75
2020/12/13 06:06:44;;;;;;;41.90;18.10;;;;;;;;;;5014803;28;20560;-75
2020/12/13 06:09:12;;;;;;;43.13;17.30;;;;;;;;;;5013018;28;20182;-72
2020/12/13 06:11:45;;;;;;;46.07;18.60;;;;;;;;;;5026625;28;20189;-72
2020/12/13 06:14:19;;;;;;;54.03;18.77;;;;;;;;;;5017961;28;20186;-72
2020/12/13 06:16:45;;;;;;;45.03;19.03;;;;;;;;;;5025615;28;20208;-72
2020/12/13 06:19:13;;;;;;;43.73;17.37;;;;;;;;;;5017626;28;20456;-71
2020/12/13 06:21:40;;;;;;;45.80;18.63;;;;;;;;;;5021182;28;20208;-71
2020/12/13 06:24:07;;;;;;;47.23;18.67;;;;;;;;;;5013868;28;20190;-71
2020/12/13 06:26:33;;;;;;;51.80;19.30;;;;;;;;;;5022349;28;20653;-71
2020/12/13 06:28:58;;;;;;;54.90;19.83;;;;;;;;;;5015815;28;20236;-71
2020/12/13 06:31:24;;;;;;;53.67;19.77;;;;;;;;;;5022938;28;20252;-71
2020/12/13 06:33:49;;;;;;;65.23;20.90;;;;;;;;;;5013804;28;20222;-71
2020/12/13 06:36:15;;;;;;;55.43;20.50;;;;;;;;;;5028081;28;20656;-71
2020/12/13 06:38:41;;;;;;;59.63;20.30;;;;;;;;;;5017688;28;20182;-71
2020/12/13 06:41:12;;;;;;;63.20;21.97;;;;;;;;;;5022266;28;20186;-71
2020/12/13 06:43:49;;;;;;;58.60;19.80;;;;;;;;;;5022412;28;20185;-71
2020/12/13 06:46:15;;;;;;;59.10;20.60;;;;;;;;;;5019168;28;20229;-71
2020/12/13 06:48:45;;;;;;;65.40;21.53;;;;;;;;;;5024503;28;20780;-71
2020/12/13 06:51:15;;;;;;;63.33;21.43;;;;;;;;;;5012851;28;20197;-71
2020/12/13 06:53:41;;;;;;;52.67;19.77;;;;;;;;;;5017556;28;21384;-71
2020/12/13 06:56:11;;;;;;;69.37;22.13;;;;;;;;;;5013104;28;20210;-71
2020/12/13 06:58:43;;;;;;;60.57;20.47;;;;;;;;;;5019928;28;20237;-71
2020/12/13 07:01:20;;;;;;;65.63;21.10;;;;;;;;;;5012911;28;20193;-71
2020/12/13 07:03:47;;;;;;;65.27;22.13;;;;;;;;;;4324730;28;10000894;-71
2020/12/13 07:06:21;;;;;;;64.07;22.30;;;;;;;;;;5009657;28;20561;-71
2020/12/13 07:09:00;;;;;;;57.13;20.60;;;;;;;;;;5013461;28;20705;-72
2020/12/13 07:11:28;;;;;;;55.83;21.30;;;;;;;;;;5011489;28;20192;-71
2020/12/13 07:14:04;;;;;;;60.93;21.03;;;;;;;;;;5023851;28;20362;-72
2020/12/13 07:16:35;;;;;;;59.40;21.03;;;;;;;;;;5011620;28;20275;-71
2020/12/13 07:19:24;;;;;;;59.07;21.37;;;;;;;;;;5013149;28;20272;-71
2020/12/13 07:21:49;;;;;;;62.53;20.83;;;;;;;;;;5006357;28;20186;-71
2020/12/13 07:24:14;;;;;;;60.80;22.30;;;;;;;;;;5020306;28;20181;-72
2020/12/13 07:26:40;;;;;;;74.37;22.30;;;;;;;;;;5009416;28;20662;-72
2020/12/13 07:29:14;;;;;;;63.50;21.90;;;;;;;;;;5024939;28;20190;-72
2020/12/13 07:31:43;;;;;;;77.67;23.13;;;;;;;;;;5014702;28;20798;-72
2020/12/13 07:34:09;;;;;;;67.77;21.00;;;;;;;;;;5020783;28;20230;-72
2020/12/13 07:36:34;;;;;;;85.90;24.27;;;;;;;;;;5014925;28;20185;-72
2020/12/13 07:39:08;;;;;;;70.47;22.73;;;;;;;;;;5023819;28;20178;-72
2020/12/13 07:41:33;;;;;;;62.57;22.13;;;;;;;;;;5019746;28;20225;-72
2020/12/13 07:44:00;;;;;;;68.23;23.20;;;;;;;;;;5007084;28;20269;-72
2020/12/13 07:46:27;;;;;;;60.67;20.97;;;;;;;;;;5013471;28;20292;-72
2020/12/13 07:49:19;;;;;;;58.20;21.57;;;;;;;;;;5007131;28;20285;-72
2020/12/13 07:51:49;;;;;;;71.27;24.33;;;;;;;;;;5018395;28;20273;-72
2020/12/13 07:54:20;;;;;;;71.40;24.57;;;;;;;;;;5012943;28;20285;-72
2020/12/13 07:56:51;;;;;;;70.90;24.50;;;;;;;;;;5017452;28;20587;-72
2020/12/13 07:59:18;;;;;;;80.70;24.33;;;;;;;;;;5010954;28;20259;-72
2020/12/13 08:01:45;;;;;;;62.83;22.77;;;;;;;;;;5019228;28;20188;-72
2020/12/13 08:04:11;;;;;;;75.10;24.80;;;;;;;;;;5009658;28;20191;-72
2020/12/13 08:06:37;;;;;;;69.97;23.97;;;;;;;;;;5018426;28;20301;-72
2020/12/13 08:09:09;;;;;;;68.47;22.70;;;;;;;;;;5008914;28;20194;-71
2020/12/13 08:11:35;;;;;;;62.70;23.07;;;;;;;;;;5017979;28;20293;-71
2020/12/13 08:14:04;;;;;;;66.47;23.30;;;;;;;;;;5011075;28;20329;-71
2020/12/13 08:16:29;;;;;;;66.17;22.70;;;;;;;;;;5024185;28;20590;-71
2020/12/13 08:18:59;;;;;;;73.80;24.27;;;;;;;;;;5011097;28;21895;-71
2020/12/13 08:21:36;;;;;;;64.57;23.93;;;;;;;;;;5021500;28;20178;-71
2020/12/13 08:24:03;;;;;;;69.40;24.10;;;;;;;;;;5007444;28;20666;-71
2020/12/13 08:26:29;;;;;;;76.63;24.70;;;;;;;;;;5023241;28;20214;-71
2020/12/13 08:28:57;;;;;;;72.03;22.90;;;;;;;;;;5017460;28;20186;-71
2020/12/13 08:31:28;;;;;;;90.23;26.00;;;;;;;;;;5012088;28;20304;-72
2020/12/13 08:34:05;;;;;;;108.57;25.80;;;;;;;;;;5016737;28;20317;-72
2020/12/13 08:36:31;;;;;;;99.00;26.80;;;;;;;;;;5012384;28;20294;-72
2020/12/13 08:39:04;;;;;;;115.73;26.87;;;;;;;;;;5019967;28;20256;-71
2020/12/13 08:41:29;;;;;;;133.00;29.93;;;;;;;;;;5011502;28;20190;-72
2020/12/13 08:43:55;;;;;;;129.23;28.27;;;;;;;;;;5017913;28;20178;-69
2020/12/13 08:46:41;;;;;;;142.97;27.60;;;;;;;;;;5010252;28;20222;-70
2020/12/13 08:49:06;;;;;;;115.13;27.23;;;;;;;;;;5018423;28;20642;-72
2020/12/13 08:51:32;;;;;;;116.53;26.20;;;;;;;;;;5008700;28;20190;-72
2020/12/13 08:53:59;;;;;;;127.77;26.57;;;;;;;;;;5016862;28;20178;-71
2020/12/13 08:56:38;;;;;;;120.73;27.20;;;;;;;;;;5009201;28;20195;-71
2020/12/13 08:59:05;;;;;;;102.53;26.50;;;;;;;;;;5015744;28;20266;-71
2020/12/13 09:01:34;;;;;;;118.53;26.57;;;;;;;;;;5011198;28;20231;-72
2020/12/13 09:04:00;;;;;;;96.50;24.33;;;;;;;;;;5019492;28;20181;-71
2020/12/13 09:06:27;;;;;;;99.87;25.90;;;;;;;;;;5012330;28;20287;-71
2020/12/13 09:08:52;;;;;;;137.73;28.47;;;;;;;;;;5020205;28;20178;-71
2020/12/13 09:11:29;;;;;;;132.47;29.17;;;;;;;;;;5016788;28;20671;-71
2020/12/13 09:13:54;;;;;;;111.50;27.93;;;;;;;;;;5019623;28;20190;-71
2020/12/13 09:16:30;;;;;;;128.03;29.13;;;;;;;;;;5022525;28;20729;-71
2020/12/13 09:19:12;;;;;;;125.80;28.77;;;;;;;;;;5016154;28;20181;-71
2020/12/13 09:21:48;;;;;;;106.57;27.77;;;;;;;;;;5020320;28;20231;-71
2020/12/13 09:24:14;;;;;;;84.63;25.43;;;;;;;;;;5019027;28;20189;-71
2020/12/13 09:26:39;;;;;;;102.03;28.50;;;;;;;;;;5017386;28;20206;-71
2020/12/13 09:29:05;;;;;;;110.80;27.10;;;;;;;;;;5014446;28;20201;-71
2020/12/13 09:31:31;;;;;;;114.70;27.97;;;;;;;;;;5019713;28;20348;-71
2020/12/13 09:33:56;;;;;;;110.00;27.83;;;;;;;;;;5022109;28;20233;-71
2020/12/13 09:36:21;;;;;;;81.97;24.93;;;;;;;;;;5021072;28;20548;-71
2020/12/13 09:38:46;;;;;;;99.80;26.97;;;;;;;;;;5007712;28;20740;-71
2020/12/13 09:41:17;;;;;;;83.53;25.27;;;;;;;;;;5017558;28;20190;-71
2020/12/13 09:43:43;;;;;;;80.50;25.97;;;;;;;;;;5005135;28;20221;-71
2020/12/13 09:46:08;;;;;;;81.10;25.37;;;;;;;;;;5014607;28;20213;-71
2020/12/13 09:48:33;;;;;;;88.23;26.63;;;;;;;;;;5002642;28;20344;-71
2020/12/13 09:50:58;;;;;;;69.47;23.73;;;;;;;;;;5011660;28;20239;-71
2020/12/13 09:53:24;;;;;;;69.90;23.87;;;;;;;;;;5015617;28;20652;-71
2020/12/13 09:55:49;;;;;;;72.80;24.37;;;;;;;;;;5010141;28;20261;-71
2020/12/13 09:58:14;;;;;;;84.73;25.80;;;;;;;;;;5015755;28;20189;-71
2020/12/13 10:00:40;;;;;;;76.60;26.77;;;;;;;;;;5009358;28;20763;-71
2020/12/13 10:03:06;;;;;;;62.17;23.97;;;;;;;;;;5017331;28;20276;-71
2020/12/13 10:05:40;;;;;;;78.17;26.67;;;;;;;;;;5011781;28;20238;-71
2020/12/13 10:10:49;;;;;;;71.83;25.80;;;;;;;;;;5012243;28;20208;-71
2020/12/13 10:13:15;;;;;;;71.47;27.00;;;;;;;;;;5015762;28;20209;-71
2020/12/13 10:15:40;;;;;;;69.83;27.37;;;;;;;;;;5011255;28;20191;-71
2020/12/13 10:18:05;;;;;;;71.87;26.73;;;;;;;;;;5013163;28;20224;-71
2020/12/13 10:20:31;;;;;;;73.47;26.10;;;;;;;;;;5013087;28;20211;-71
2020/12/13 10:22:56;;;;;;;60.05;23.88;;;;;;;;;;5028789;28;20190;-71
2020/12/13 10:25:22;;;;;;;70.53;25.47;;;;;;;;;;5013825;28;20366;-71
2020/12/13 10:27:47;;;;;;;67.93;24.97;;;;;;;;;;5024860;28;20182;-71
2020/12/13 10:30:12;;;;;;;72.47;25.90;;;;;;;;;;5018197;28;20610;-71
2020/12/13 10:32:38;;;;;;;60.25;24.45;;;;;;;;;;5019928;28;20217;-71
2020/12/13 10:35:03;;;;;;;71.63;25.63;;;;;;;;;;5020562;28;20295;-71
2020/12/13 10:37:28;;;;;;;63.93;25.13;;;;;;;;;;5011381;28;20208;-71
2020/12/13 10:39:54;;;;;;;59.90;24.07;;;;;;;;;;5020027;28;20287;-71
2020/12/13 10:42:19;;;;;;;66.50;24.53;;;;;;;;;;5009245;28;20610;-71
2020/12/13 10:44:44;;;;;;;72.17;26.03;;;;;;;;;;5018304;28;20186;-71
2020/12/13 10:47:11;;;;;;;78.30;28.47;;;;;;;;;;5011964;28;20684;-71
2020/12/13 10:49:40;;;;;;;77.73;27.67;;;;;;;;;;5018063;28;20265;-71
2020/12/13 10:52:05;;;;;;;75.13;28.93;;;;;;;;;;5009545;28;20190;-71
2020/12/13 10:54:30;;;;;;;80.13;28.90;;;;;;;;;;5023016;28;20192;-71
2020/12/13 10:56:56;;;;;;;72.63;28.03;;;;;;;;;;5013984;28;20201;-71
2020/12/13 10:59:21;;;;;;;69.33;27.87;;;;;;;;;;5020968;28;20190;-71
2020/12/13 11:01:47;;;;;;;74.87;27.97;;;;;;;;;;5016690;28;20238;-71
2020/12/13 11:04:12;;;;;;;68.53;28.47;;;;;;;;;;5016985;28;20205;-70
2020/12/13 11:06:37;;;;;;;77.60;29.20;;;;;;;;;;5021818;28;20293;-70
2020/12/13 11:09:04;;;;;;;77.60;27.23;;;;;;;;;;5014833;28;20191;-70
2020/12/13 11:11:29;;;;;;;68.27;28.73;;;;;;;;;;5022361;28;20548;-71
2020/12/13 11:13:54;;;;;;;66.20;26.73;;;;;;;;;;5012436;28;20201;-71
2020/12/13 11:16:20;;;;;;;65.43;25.50;;;;;;;;;;5025584;28;20190;-70
2020/12/13 11:18:45;;;;;;;67.47;27.73;;;;;;;;;;5016693;28;20693;-70
2020/12/13 11:21:10;;;;;;;64.43;25.50;;;;;;;;;;5024938;28;20194;-70
2020/12/13 11:23:36;;;;;;;73.93;27.80;;;;;;;;;;5014273;28;20195;-70
2020/12/13 11:26:01;;;;;;;66.60;27.57;;;;;;;;;;5025128;28;20293;-70
2020/12/13 11:28:27;;;;;;;72.20;28.03;;;;;;;;;;5011541;28;20213;-70
2020/12/13 11:30:52;;;;;;;64.27;28.17;;;;;;;;;;5020376;28;20236;-70
2020/12/13 11:33:18;;;;;;;67.80;27.83;;;;;;;;;;5026533;28;20708;-70
2020/12/13 11:35:43;;;;;;;67.33;28.57;;;;;;;;;;5020314;28;20206;-70
2020/12/13 11:38:09;;;;;;;62.37;27.90;;;;;;;;;;5024846;28;20547;-70
2020/12/13 11:40:34;;;;;;;67.87;27.60;;;;;;;;;;5019649;28;20205;-73
2020/12/13 11:43:00;;;;;;;66.03;28.63;;;;;;;;;;5026571;28;20650;-70
2020/12/13 11:45:25;;;;;;;60.10;27.33;;;;;;;;;;5016509;28;20594;-70
2020/12/13 11:47:51;;;;;;;66.40;28.53;;;;;;;;;;5030424;28;20189;-70
2020/12/13 11:50:16;;;;;;;68.47;28.50;;;;;;;;;;5018215;28;20225;-70
2020/12/13 11:52:41;;;;;;;59.77;26.73;;;;;;;;;;5023179;28;20266;-70
2020/12/13 11:55:07;;;;;;;64.90;28.17;;;;;;;;;;5009469;28;20189;-70
2020/12/13 11:57:33;;;;;;;58.67;28.10;;;;;;;;;;5026718;28;20182;-70
2020/12/13 11:59:59;;;;;;;53.23;28.50;;;;;;;;;;5021062;28;20659;-70
2020/12/13 12:02:24;;;;;;;49.40;25.57;;;;;;;;;;5025578;28;20187;-70
2020/12/13 12:04:49;;;;;;;48.17;27.13;;;;;;;;;;5026942;28;20225;-70
2020/12/13 12:07:15;;;;;;;50.83;26.80;;;;;;;;;;5015586;28;20305;-70
2020/12/13 12:09:40;;;;;;;50.57;26.20;;;;;;;;;;5022763;28;20186;-70
2020/12/13 12:12:05;;;;;;;46.87;26.10;;;;;;;;;;5014479;28;20186;-70
2020/12/13 12:14:31;;;;;;;51.03;27.33;;;;;;;;;;5027049;28;20216;-70
2020/12/13 12:16:56;;;;;;;42.20;25.83;;;;;;;;;;5018202;28;20189;-70
2020/12/13 12:19:22;;;;;;;46.13;26.93;;;;;;;;;;5027439;28;20190;-70
2020/12/13 12:21:50;;;;;;;50.73;26.70;;;;;;;;;;5013855;28;20219;-70
2020/12/13 12:24:17;;;;;;;45.20;26.47;;;;;;;;;;5020161;28;20569;-70
2020/12/13 12:26:43;;;;;;;48.80;26.37;;;;;;;;;;5012769;28;20264;-70
2020/12/13 12:29:09;;;;;;;52.20;26.27;;;;;;;;;;5022543;28;20641;-70
2020/12/13 12:31:34;;;;;;;45.03;27.13;;;;;;;;;;5018891;28;20198;-70
2020/12/13 12:34:00;;;;;;;51.73;26.87;;;;;;;;;;5026727;28;20246;-70
2020/12/13 12:36:27;;;;;;;48.17;27.50;;;;;;;;;;5024028;28;20186;-71
2020/12/13 12:38:52;;;;;;;51.60;26.60;;;;;;;;;;5019939;28;20225;-70
2020/12/13 12:41:20;;;;;;;45.57;25.57;;;;;;;;;;5022819;28;20715;-70
2020/12/13 12:43:47;;;;;;;47.37;25.60;;;;;;;;;;5011544;28;20619;-70
2020/12/13 12:46:13;;;;;;;45.87;25.63;;;;;;;;;;5022295;28;20280;-69
2020/12/13 12:48:38;;;;;;;47.13;25.83;;;;;;;;;;5013242;28;20222;-69
2020/12/13 12:51:06;;;;;;;41.37;25.37;;;;;;;;;;5020443;28;20186;-69
2020/12/13 12:53:31;;;;;;;44.07;24.17;;;;;;;;;;5010657;28;20403;-70
2020/12/13 12:55:57;;;;;;;45.20;25.37;;;;;;;;;;5017502;28;20556;-70
2020/12/13 12:58:24;;;;;;;47.43;26.40;;;;;;;;;;5012030;28;20182;-70
2020/12/13 13:00:54;;;;;;;46.77;25.37;;;;;;;;;;5020465;28;20277;-70
2020/12/13 13:03:19;;;;;;;42.17;24.70;;;;;;;;;;5009795;28;20188;-70
2020/12/13 13:05:58;;;;;;;50.67;25.93;;;;;;;;;;5013255;28;20202;-70
2020/12/13 13:08:27;;;;;;;42.17;23.83;;;;;;;;;;5013816;28;20560;-70
2020/12/13 13:10:59;;;;;;;43.73;25.03;;;;;;;;;;5017524;28;20646;-70
2020/12/13 13:13:24;;;;;;;43.47;25.80;;;;;;;;;;5007233;28;20190;-69
2020/12/13 13:15:57;;;;;;;43.00;25.57;;;;;;;;;;5015332;28;20181;-70
2020/12/13 13:18:25;;;;;;;47.90;26.07;;;;;;;;;;5021939;28;20814;-70
2020/12/13 13:20:53;;;;;;;46.10;25.70;;;;;;;;;;5008870;28;20191;-70
2020/12/13 13:23:22;;;;;;;49.03;25.83;;;;;;;;;;5020868;28;20206;-70
2020/12/13 13:25:48;;;;;;;48.00;27.50;;;;;;;;;;5006334;28;20257;-70
2020/12/13 13:28:13;;;;;;;48.87;27.80;;;;;;;;;;5018101;28;20187;-70
2020/12/13 13:30:38;;;;;;;45.20;26.60;;;;;;;;;;5014186;28;20198;-70
2020/12/13 13:33:04;;;;;;;47.87;26.30;;;;;;;;;;5017076;28;20238;-70
2020/12/13 13:35:32;;;;;;;45.17;26.37;;;;;;;;;;5011948;28;20178;-70
2020/12/13 13:37:58;;;;;;;47.13;26.50;;;;;;;;;;5020091;28;20186;-70
2020/12/13 13:40:23;;;;;;;47.27;25.50;;;;;;;;;;5016627;28;20189;-70
2020/12/13 13:42:53;;;;;;;52.10;27.50;;;;;;;;;;5022483;28;20194;-70
2020/12/13 13:45:31;;;;;;;45.90;26.57;;;;;;;;;;5009249;28;20186;-71
2020/12/13 13:48:22;;;;;;;52.87;26.77;;;;;;;;;;5017356;28;20194;-71
2020/12/13 13:50:47;;;;;;;52.23;27.23;;;;;;;;;;5007183;28;20209;-71
2020/12/13 13:53:13;;;;;;;47.87;26.30;;;;;;;;;;5024381;28;20596;-71
2020/12/13 13:55:56;;;;;;;48.57;26.90;;;;;;;;;;5010809;28;20186;-71
2020/12/13 13:58:24;;;;;;;46.70;26.40;;;;;;;;;;5023977;28;20252;-71
2020/12/13 14:00:49;;;;;;;53.37;27.07;;;;;;;;;;5011830;28;20189;-71
2020/12/13 14:03:15;;;;;;;48.80;26.70;;;;;;;;;;5018188;28;20194;-71
2020/12/13 14:05:48;;;;;;;49.43;27.37;;;;;;;;;;5022402;28;20198;-71
2020/12/13 14:10:45;;;;;;;47.10;25.97;;;;;;;;;;5020798;28;20210;-71
2020/12/13 14:13:11;;;;;;;48.53;25.67;;;;;;;;;;5008447;28;20193;-72
2020/12/13 14:15:36;;;;;;;46.57;25.87;;;;;;;;;;5023984;28;20198;-71
2020/12/13 14:18:01;;;;;;;48.03;24.47;;;;;;;;;;5014126;28;20230;-70
2020/12/13 14:20:27;;;;;;;41.40;23.87;;;;;;;;;;5023426;28;20276;-71
2020/12/13 14:22:54;;;;;;;40.13;23.43;;;;;;;;;;5010120;28;20186;-71
2020/12/13 14:25:19;;;;;;;38.70;21.93;;;;;;;;;;5018389;28;20197;-71
2020/12/13 14:27:45;;;;;;;42.67;22.37;;;;;;;;;;5009508;28;20213;-71